createdAt,value
2022-11-08T00:00:09.109Z,14.70
2022-11-08T00:05:26.446Z,14.70
2022-11-08T00:10:42.063Z,14.70
2022-11-08T00:15:40.185Z,14.70
2022-11-08T00:20:39.718Z,14.70
2022-11-08T00:25:37.815Z,14.70
2022-11-08T00:30:36.184Z,14.80
2022-11-08T00:35:34.322Z,14.80
2022-11-08T00:40:33.804Z,14.80
2022-11-08T00:45:31.923Z,14.80
2022-11-08T00:50:30.080Z,14.80
2022-11-08T00:55:28.209Z,14.80
2022-11-08T01:00:27.752Z,14.80
2022-11-08T01:05:25.866Z,14.80
2022-11-08T01:10:24.007Z,14.70
2022-11-08T01:15:22.167Z,14.70
2022-11-08T01:20:21.792Z,14.70
2022-11-08T01:25:19.974Z,14.70
2022-11-08T01:30:18.448Z,14.60
2022-11-08T01:35:16.683Z,14.60
2022-11-08T01:40:16.315Z,14.60
2022-11-08T01:45:14.504Z,14.60
2022-11-08T01:50:15.715Z,14.60
2022-11-08T01:55:20.521Z,14.50
2022-11-08T02:00:19.757Z,14.50
2022-11-08T02:05:35.831Z,14.50
2022-11-08T02:10:38.203Z,14.50
2022-11-08T02:15:36.506Z,14.50
2022-11-08T02:20:35.281Z,14.50
2022-11-08T02:25:34.923Z,14.40
2022-11-08T02:30:36.514Z,14.40
2022-11-08T02:35:34.738Z,14.30
2022-11-08T02:40:45.627Z,14.30
2022-11-08T02:45:43.794Z,14.30
2022-11-08T02:50:42.162Z,14.30
2022-11-08T02:55:41.709Z,14.20
2022-11-08T03:00:39.994Z,14.20
2022-11-08T03:05:38.191Z,14.20
2022-11-08T03:10:36.393Z,14.10
2022-11-08T03:15:35.982Z,14.10
2022-11-08T03:20:34.195Z,14.10
2022-11-08T03:25:32.479Z,14.00
2022-11-08T03:30:30.746Z,14.00
2022-11-08T03:35:30.459Z,14.00
2022-11-08T03:40:28.971Z,14.00
2022-11-08T03:45:27.176Z,14.00
2022-11-08T03:50:25.612Z,13.90
2022-11-08T03:55:27.284Z,13.90
2022-11-08T04:00:27.335Z,13.90
2022-11-08T04:05:25.491Z,13.90
2022-11-08T04:10:25.229Z,13.80
2022-11-08T04:15:23.004Z,13.80
2022-11-08T04:20:38.359Z,13.80
2022-11-08T04:25:37.894Z,13.70
2022-11-08T04:30:36.859Z,13.70
2022-11-08T04:35:35.047Z,13.70
2022-11-08T04:40:33.168Z,13.70
2022-11-08T04:45:32.635Z,13.60
2022-11-08T04:50:30.834Z,13.60
2022-11-08T04:55:29.032Z,13.60
2022-11-08T05:00:28.315Z,13.50
2022-11-08T05:05:27.877Z,13.50
2022-11-08T05:10:26.024Z,13.50
2022-11-08T05:15:24.147Z,13.50
2022-11-08T05:20:39.389Z,13.50
2022-11-08T05:25:43.974Z,13.40
2022-11-08T05:30:42.475Z,13.40
2022-11-08T05:35:40.794Z,13.40
2022-11-08T05:40:39.021Z,13.40
2022-11-08T05:45:38.848Z,13.30
2022-11-08T05:50:37.511Z,13.30
2022-11-08T05:55:42.474Z,13.30
2022-11-08T06:00:42.012Z,13.30
2022-11-08T06:05:40.157Z,13.30
2022-11-08T06:10:38.273Z,13.20
2022-11-08T06:15:36.416Z,13.20
2022-11-08T06:20:35.903Z,13.20
2022-11-08T06:25:34.094Z,13.20
2022-11-08T06:30:34.764Z,13.20
2022-11-08T06:35:32.956Z,13.20
2022-11-08T06:40:33.301Z,13.20
2022-11-08T06:45:31.532Z,13.20
2022-11-08T06:50:31.833Z,13.10
2022-11-08T06:55:31.954Z,13.20
2022-11-08T07:00:30.650Z,13.20
2022-11-08T07:05:30.690Z,13.20
2022-11-08T07:10:32.934Z,13.20
2022-11-08T07:15:32.691Z,13.20
2022-11-08T07:20:31.103Z,13.30
2022-11-08T07:25:30.532Z,13.30
2022-11-08T07:30:30.711Z,13.30
2022-11-08T07:35:29.174Z,13.30
2022-11-08T07:40:27.481Z,13.30
2022-11-08T07:45:25.956Z,13.30
2022-11-08T07:50:25.513Z,13.30
2022-11-08T07:55:24.084Z,13.30
2022-11-08T08:00:22.584Z,13.40
2022-11-08T08:05:20.806Z,13.40
2022-11-08T08:10:20.384Z,13.40
2022-11-08T08:15:18.549Z,13.50
2022-11-08T08:20:16.888Z,13.50
2022-11-08T08:25:15.777Z,13.50
2022-11-08T08:30:15.952Z,13.60
2022-11-08T08:35:14.953Z,13.60
2022-11-08T08:40:13.630Z,13.60
2022-11-08T08:45:14.891Z,13.70
2022-11-08T08:50:14.809Z,13.70
2022-11-08T08:55:12.981Z,13.80
2022-11-08T09:05:32.067Z,13.90
2022-11-08T09:10:30.219Z,14.00
2022-11-08T09:15:28.332Z,14.10
2022-11-08T09:20:26.609Z,14.10
2022-11-08T09:25:26.103Z,14.20
2022-11-08T09:30:24.246Z,14.20
2022-11-08T09:35:22.823Z,14.30
2022-11-08T09:40:24.685Z,14.40
2022-11-08T09:45:30.114Z,14.50
2022-11-08T09:50:35.600Z,14.60
2022-11-08T09:55:39.992Z,14.70
2022-11-08T10:00:41.319Z,14.80
2022-11-08T10:05:43.590Z,14.90
2022-11-08T10:10:57.209Z,15.00
2022-11-08T10:16:06.060Z,15.10
2022-11-08T10:21:12.150Z,15.20
2022-11-08T10:26:15.737Z,15.30
2022-11-08T10:31:15.881Z,15.40
2022-11-08T10:36:21.111Z,15.40
2022-11-08T10:41:26.721Z,15.50
2022-11-08T10:46:43.412Z,15.60
2022-11-08T10:51:41.599Z,15.60
2022-11-08T10:56:56.745Z,15.70
2022-11-08T11:01:56.450Z,15.80
2022-11-08T11:06:54.900Z,15.80
2022-11-08T11:11:58.639Z,15.90
2022-11-08T11:17:01.884Z,16.10
2022-11-08T11:22:06.000Z,16.20
2022-11-08T11:27:06.888Z,16.20
2022-11-08T11:32:25.225Z,16.40
2022-11-08T11:37:31.704Z,16.50
2022-11-08T11:42:50.626Z,16.50
2022-11-08T11:47:53.634Z,16.60
2022-11-08T11:52:51.955Z,16.70
2022-11-08T11:58:02.424Z,16.70
2022-11-08T12:03:35.032Z,16.70
2022-11-08T12:08:47.935Z,16.70
2022-11-08T12:14:04.446Z,16.80
2022-11-08T12:19:22.136Z,16.80
2022-11-08T12:24:37.729Z,16.80
2022-11-08T12:29:47.311Z,16.80
2022-11-08T12:35:01.969Z,16.80
2022-11-08T12:40:02.169Z,16.80
2022-11-08T12:45:33.664Z,16.90
2022-11-08T12:50:38.998Z,16.90
2022-11-08T12:55:38.777Z,16.90
2022-11-08T13:00:38.609Z,16.90
2022-11-08T13:05:43.938Z,16.90
2022-11-08T13:10:54.294Z,16.90
2022-11-08T13:16:12.463Z,16.80
2022-11-08T13:21:37.860Z,16.80
2022-11-08T13:26:41.770Z,16.80
2022-11-08T13:31:51.921Z,16.80
2022-11-08T13:37:07.820Z,16.80
2022-11-08T13:42:28.837Z,16.80
2022-11-08T13:47:55.541Z,16.70
2022-11-08T13:53:54.493Z,16.70
2022-11-08T13:58:54.050Z,16.70
2022-11-08T14:03:56.701Z,16.70
2022-11-08T14:09:02.807Z,16.70
2022-11-08T14:20:50.683Z,16.60
2022-11-08T14:25:52.496Z,16.60
2022-11-08T14:30:51.104Z,16.60
2022-11-08T14:35:59.675Z,16.60
2022-11-08T14:41:00.688Z,16.60
2022-11-08T14:45:59.068Z,16.50
2022-11-08T14:51:02.531Z,16.50
2022-11-08T14:56:09.787Z,16.40
2022-11-08T15:01:11.000Z,16.40
2022-11-08T15:06:14.329Z,16.40
2022-11-08T15:11:28.605Z,16.30
2022-11-08T15:16:27.613Z,16.20
2022-11-08T15:21:31.977Z,16.20
2022-11-08T15:26:33.681Z,16.20
2022-11-08T15:31:36.169Z,16.10
2022-11-08T15:36:37.662Z,16.10
2022-11-08T15:41:38.561Z,16.00
2022-11-08T15:46:38.586Z,15.90
2022-11-08T15:51:38.056Z,15.90
2022-11-08T15:56:36.210Z,15.90
2022-11-08T16:01:37.619Z,15.90
2022-11-08T16:06:39.459Z,15.90
2022-11-08T16:12:39.538Z,15.90
2022-11-08T16:17:45.077Z,15.90
2022-11-08T16:22:44.614Z,15.80
2022-11-08T16:27:42.847Z,15.90
2022-11-08T16:32:41.186Z,15.80
2022-11-08T16:37:39.881Z,15.80
2022-11-08T16:42:39.384Z,15.80
2022-11-08T16:47:37.824Z,15.80
2022-11-08T16:52:35.947Z,15.80
2022-11-08T16:57:35.252Z,15.80
2022-11-08T17:09:24.917Z,15.80
2022-11-08T17:14:23.092Z,15.70
2022-11-08T17:19:21.229Z,15.70
2022-11-08T17:24:21.787Z,15.70
2022-11-08T17:29:21.558Z,15.60
2022-11-08T17:34:19.650Z,15.60
2022-11-08T17:39:17.813Z,15.60
2022-11-08T17:44:15.970Z,15.60
2022-11-08T17:49:15.514Z,15.60
2022-11-08T18:01:05.243Z,15.60
2022-11-08T18:06:06.566Z,15.50
2022-11-08T18:11:04.982Z,15.50
2022-11-08T18:16:11.025Z,15.40
2022-11-08T18:21:10.989Z,15.40
2022-11-08T18:26:09.386Z,15.40
2022-11-08T18:31:08.550Z,15.40
2022-11-08T18:36:07.976Z,15.30
2022-11-08T18:41:08.226Z,15.30
2022-11-08T18:46:07.553Z,15.30
2022-11-08T18:51:07.090Z,15.30
2022-11-08T18:56:06.523Z,15.30
2022-11-08T19:01:06.493Z,15.20
2022-11-08T19:06:04.826Z,15.30
2022-11-08T19:11:06.091Z,15.20
2022-11-08T19:16:07.476Z,15.20
2022-11-08T19:21:08.259Z,15.20
2022-11-08T19:26:08.146Z,15.10
2022-11-08T19:31:08.780Z,15.10
2022-11-08T19:36:09.098Z,15.10
2022-11-08T19:41:09.620Z,15.10
2022-11-08T19:46:12.301Z,15.10
2022-11-08T19:51:14.013Z,15.10
2022-11-08T19:56:15.004Z,15.10
2022-11-08T20:01:17.799Z,15.10
2022-11-08T20:06:18.241Z,15.20
2022-11-08T20:11:19.001Z,15.20
2022-11-08T20:16:20.251Z,15.20
2022-11-08T20:21:19.100Z,15.20
2022-11-08T20:26:19.118Z,15.20
2022-11-08T20:31:23.004Z,15.20
2022-11-08T20:36:22.549Z,15.30
2022-11-08T20:41:20.791Z,15.30
2022-11-08T20:46:22.977Z,15.30
2022-11-08T20:51:22.484Z,15.30
2022-11-08T20:56:22.491Z,15.30
2022-11-08T21:01:24.101Z,15.30
2022-11-08T21:06:24.046Z,15.30
2022-11-08T21:11:22.829Z,15.30
2022-11-08T21:16:33.084Z,15.30
2022-11-08T21:21:37.336Z,15.30
2022-11-08T21:26:36.582Z,15.40
2022-11-08T21:31:36.479Z,15.30
2022-11-08T21:36:34.715Z,15.40
2022-11-08T21:41:32.970Z,15.30
2022-11-08T21:46:31.192Z,15.40
2022-11-08T21:51:31.323Z,15.30
2022-11-08T21:57:30.895Z,15.30
2022-11-08T22:02:29.144Z,15.30
2022-11-08T22:07:28.746Z,15.30
2022-11-08T22:12:27.530Z,15.30
2022-11-08T22:17:26.040Z,15.30
2022-11-08T22:22:24.374Z,15.30
2022-11-08T22:27:23.903Z,15.30
2022-11-08T22:32:22.095Z,15.30
2022-11-08T22:37:20.296Z,15.30
2022-11-08T22:42:18.468Z,15.30
2022-11-08T22:47:18.263Z,15.30
2022-11-08T22:52:16.477Z,15.30
2022-11-08T22:57:39.712Z,15.20
2022-11-08T23:02:39.288Z,15.20
2022-11-08T23:07:37.420Z,15.20
2022-11-08T23:12:52.865Z,15.20
2022-11-08T23:17:52.446Z,15.20
2022-11-08T23:23:07.949Z,15.20
2022-11-08T23:28:23.250Z,15.20
2022-11-08T23:33:23.020Z,15.10
2022-11-08T23:38:22.691Z,15.10
2022-11-08T23:43:38.612Z,15.10
2022-11-08T23:48:39.242Z,15.10
2022-11-08T23:53:39.923Z,15.10
2022-11-08T23:58:38.246Z,15.10
